sensor_id;sensor_type;location;lat;lon;timestamp;pressure;altitude;pressure_sealevel;temperature;humidity
78170;BME280;67412;49.892;14.490;2023-07-30T00:01:10;96793.53;;;15.63;100.00
78170;BME280;67412;49.892;14.490;2023-07-30T00:03:36;96795.38;;;15.60;99.89
78170;BME280;67412;49.892;14.490;2023-07-30T00:06:01;96790.34;;;15.57;100.00
78170;BME280;67412;49.892;14.490;2023-07-30T00:08:27;96789.63;;;15.53;100.00
78170;BME280;67412;49.892;14.490;2023-07-30T00:10:52;96788.03;;;15.51;100.00
78170;BME280;67412;49.892;14.490;2023-07-30T00:13:17;96788.09;;;15.49;100.00
78170;BME280;67412;49.892;14.490;2023-07-30T00:15:45;96786.56;;;15.43;100.00
78170;BME280;67412;49.892;14.490;2023-07-30T00:18:11;96781.09;;;15.51;100.00
78170;BME280;67412;49.892;14.490;2023-07-30T00:20:36;96772.03;;;15.61;100.00
78170;BME280;67412;49.892;14.490;2023-07-30T00:23:01;96778.78;;;15.65;100.00
78170;BME280;67412;49.892;14.490;2023-07-30T00:25:27;96765.31;;;15.57;100.00
78170;BME280;67412;49.892;14.490;2023-07-30T00:27:52;96762.84;;;15.54;100.00
78170;BME280;67412;49.892;14.490;2023-07-30T00:30:17;96764.53;;;15.55;100.00
78170;BME280;67412;49.892;14.490;2023-07-30T00:32:43;96762.66;;;15.59;100.00
78170;BME280;67412;49.892;14.490;2023-07-30T00:35:09;96766.00;;;15.61;100.00
78170;BME280;67412;49.892;14.490;2023-07-30T00:37:35;96767.56;;;15.65;100.00
78170;BME280;67412;49.892;14.490;2023-07-30T00:40:00;96767.94;;;15.76;100.00
78170;BME280;67412;49.892;14.490;2023-07-30T00:42:25;96761.44;;;15.86;100.00
78170;BME280;67412;49.892;14.490;2023-07-30T00:44:51;96757.25;;;15.83;100.00
78170;BME280;67412;49.892;14.490;2023-07-30T00:47:16;96755.56;;;15.82;100.00
78170;BME280;67412;49.892;14.490;2023-07-30T00:49:42;96744.94;;;15.88;100.00
78170;BME280;67412;49.892;14.490;2023-07-30T00:52:07;96752.00;;;15.85;100.00
78170;BME280;67412;49.892;14.490;2023-07-30T00:54:33;96748.72;;;15.81;100.00
78170;BME280;67412;49.892;14.490;2023-07-30T00:56:59;96753.41;;;15.92;100.00
78170;BME280;67412;49.892;14.490;2023-07-30T00:59:25;96744.75;;;15.93;100.00
78170;BME280;67412;49.892;14.490;2023-07-30T01:01:51;96750.53;;;15.98;100.00
78170;BME280;67412;49.892;14.490;2023-07-30T01:04:17;96745.44;;;15.97;100.00
78170;BME280;67412;49.892;14.490;2023-07-30T01:06:43;96755.88;;;15.95;100.00
78170;BME280;67412;49.892;14.490;2023-07-30T01:09:09;96755.81;;;15.97;100.00
78170;BME280;67412;49.892;14.490;2023-07-30T01:11:36;96758.97;;;16.03;100.00
78170;BME280;67412;49.892;14.490;2023-07-30T01:14:03;96757.28;;;16.02;100.00
78170;BME280;67412;49.892;14.490;2023-07-30T01:16:30;96760.84;;;16.00;100.00
78170;BME280;67412;49.892;14.490;2023-07-30T01:18:55;96760.16;;;15.96;100.00
78170;BME280;67412;49.892;14.490;2023-07-30T01:21:21;96755.03;;;15.94;100.00
78170;BME280;67412;49.892;14.490;2023-07-30T01:23:46;96754.19;;;15.94;100.00
78170;BME280;67412;49.892;14.490;2023-07-30T01:26:25;96749.41;;;15.85;100.00
78170;BME280;67412;49.892;14.490;2023-07-30T01:28:54;96748.81;;;15.78;100.00
78170;BME280;67412;49.892;14.490;2023-07-30T01:31:25;96753.31;;;15.75;100.00
78170;BME280;67412;49.892;14.490;2023-07-30T01:33:54;96751.56;;;15.75;100.00
78170;BME280;67412;49.892;14.490;2023-07-30T01:36:20;96758.06;;;15.65;100.00
78170;BME280;67412;49.892;14.490;2023-07-30T01:38:46;96757.22;;;15.65;100.00
78170;BME280;67412;49.892;14.490;2023-07-30T01:41:12;96761.94;;;15.55;100.00
78170;BME280;67412;49.892;14.490;2023-07-30T01:43:38;96767.13;;;15.55;100.00
78170;BME280;67412;49.892;14.490;2023-07-30T01:46:03;96782.09;;;15.47;100.00
78170;BME280;67412;49.892;14.490;2023-07-30T01:48:28;96778.09;;;15.40;100.00
78170;BME280;67412;49.892;14.490;2023-07-30T01:50:54;96782.44;;;15.39;100.00
78170;BME280;67412;49.892;14.490;2023-07-30T01:53:19;96776.72;;;15.31;100.00
78170;BME280;67412;49.892;14.490;2023-07-30T01:55:44;96780.16;;;15.32;100.00
78170;BME280;67412;49.892;14.490;2023-07-30T01:58:14;96774.13;;;15.31;100.00
78170;BME280;67412;49.892;14.490;2023-07-30T02:00:40;96776.06;;;15.26;100.00
78170;BME280;67412;49.892;14.490;2023-07-30T02:03:05;96770.06;;;15.26;100.00
78170;BME280;67412;49.892;14.490;2023-07-30T02:05:31;96777.03;;;15.24;100.00
78170;BME280;67412;49.892;14.490;2023-07-30T02:07:57;96772.97;;;15.18;100.00
78170;BME280;67412;49.892;14.490;2023-07-30T02:10:24;96775.56;;;15.18;100.00
78170;BME280;67412;49.892;14.490;2023-07-30T02:12:49;96778.03;;;15.21;100.00
78170;BME280;67412;49.892;14.490;2023-07-30T02:15:15;96782.00;;;15.08;100.00
78170;BME280;67412;49.892;14.490;2023-07-30T02:17:40;96781.28;;;15.05;100.00
78170;BME280;67412;49.892;14.490;2023-07-30T02:20:06;96782.00;;;15.08;100.00
78170;BME280;67412;49.892;14.490;2023-07-30T02:22:31;96772.75;;;15.03;100.00
78170;BME280;67412;49.892;14.490;2023-07-30T02:24:57;96773.91;;;14.95;100.00
78170;BME280;67412;49.892;14.490;2023-07-30T02:27:22;96777.63;;;14.88;100.00
78170;BME280;67412;49.892;14.490;2023-07-30T02:29:48;96774.09;;;14.91;100.00
78170;BME280;67412;49.892;14.490;2023-07-30T02:32:13;96786.22;;;14.89;100.00
78170;BME280;67412;49.892;14.490;2023-07-30T02:34:38;96782.19;;;14.82;100.00
78170;BME280;67412;49.892;14.490;2023-07-30T02:37:04;96776.13;;;14.83;100.00
78170;BME280;67412;49.892;14.490;2023-07-30T02:39:29;96774.84;;;14.93;100.00
78170;BME280;67412;49.892;14.490;2023-07-30T02:41:54;96768.78;;;14.94;100.00
78170;BME280;67412;49.892;14.490;2023-07-30T02:44:20;96771.31;;;14.95;100.00
78170;BME280;67412;49.892;14.490;2023-07-30T02:46:45;96769.03;;;14.88;100.00
78170;BME280;67412;49.892;14.490;2023-07-30T02:49:10;96768.78;;;14.94;100.00
78170;BME280;67412;49.892;14.490;2023-07-30T02:51:35;96764.50;;;14.93;100.00
78170;BME280;67412;49.892;14.490;2023-07-30T02:54:04;96763.88;;;14.88;100.00
78170;BME280;67412;49.892;14.490;2023-07-30T02:56:30;96770.69;;;14.89;100.00
78170;BME280;67412;49.892;14.490;2023-07-30T02:58:58;96768.13;;;14.89;100.00
78170;BME280;67412;49.892;14.490;2023-07-30T03:01:23;96772.66;;;14.84;100.00
78170;BME280;67412;49.892;14.490;2023-07-30T03:03:48;96766.69;;;14.82;100.00
78170;BME280;67412;49.892;14.490;2023-07-30T03:06:14;96766.63;;;14.83;100.00
78170;BME280;67412;49.892;14.490;2023-07-30T03:08:42;96770.13;;;14.82;100.00
78170;BME280;67412;49.892;14.490;2023-07-30T03:11:07;96773.41;;;14.86;100.00
78170;BME280;67412;49.892;14.490;2023-07-30T03:13:32;96771.13;;;15.00;100.00
78170;BME280;67412;49.892;14.490;2023-07-30T03:15:58;96768.75;;;15.16;100.00
78170;BME280;67412;49.892;14.490;2023-07-30T03:18:23;96773.28;;;15.31;100.00
78170;BME280;67412;49.892;14.490;2023-07-30T03:20:48;96774.56;;;15.41;100.00
78170;BME280;67412;49.892;14.490;2023-07-30T03:23:13;96757.97;;;15.46;100.00
78170;BME280;67412;49.892;14.490;2023-07-30T03:25:39;96762.78;;;15.56;100.00
78170;BME280;67412;49.892;14.490;2023-07-30T03:28:04;96748.16;;;15.55;100.00
78170;BME280;67412;49.892;14.490;2023-07-30T03:30:30;96754.44;;;15.49;100.00
78170;BME280;67412;49.892;14.490;2023-07-30T03:32:55;96746.91;;;15.43;100.00
78170;BME280;67412;49.892;14.490;2023-07-30T03:35:20;96742.00;;;15.37;100.00
78170;BME280;67412;49.892;14.490;2023-07-30T03:37:46;96744.19;;;15.26;100.00
78170;BME280;67412;49.892;14.490;2023-07-30T03:40:11;96751.44;;;15.18;100.00
78170;BME280;67412;49.892;14.490;2023-07-30T03:42:36;96753.94;;;15.19;100.00
78170;BME280;67412;49.892;14.490;2023-07-30T03:45:02;96748.03;;;15.16;100.00
78170;BME280;67412;49.892;14.490;2023-07-30T03:47:27;96751.34;;;15.19;100.00
78170;BME280;67412;49.892;14.490;2023-07-30T03:49:52;96755.50;;;15.23;100.00
78170;BME280;67412;49.892;14.490;2023-07-30T03:52:18;96750.28;;;15.25;100.00
78170;BME280;67412;49.892;14.490;2023-07-30T03:54:43;96750.91;;;15.30;100.00
78170;BME280;67412;49.892;14.490;2023-07-30T03:57:08;96743.84;;;15.33;100.00
78170;BME280;67412;49.892;14.490;2023-07-30T03:59:34;96747.22;;;15.35;100.00
78170;BME280;67412;49.892;14.490;2023-07-30T04:01:59;96737.78;;;15.34;100.00
78170;BME280;67412;49.892;14.490;2023-07-30T04:04:24;96737.53;;;15.40;100.00
78170;BME280;67412;49.892;14.490;2023-07-30T04:06:50;96749.25;;;15.49;100.00
78170;BME280;67412;49.892;14.490;2023-07-30T04:09:15;96742.09;;;15.56;100.00
78170;BME280;67412;49.892;14.490;2023-07-30T04:11:40;96744.13;;;15.68;100.00
78170;BME280;67412;49.892;14.490;2023-07-30T04:14:06;96745.47;;;15.76;100.00
78170;BME280;67412;49.892;14.490;2023-07-30T04:16:33;96745.13;;;15.84;100.00
78170;BME280;67412;49.892;14.490;2023-07-30T04:18:58;96751.81;;;15.89;100.00
78170;BME280;67412;49.892;14.490;2023-07-30T04:21:24;96761.94;;;15.94;100.00
78170;BME280;67412;49.892;14.490;2023-07-30T04:23:49;96760.66;;;16.04;100.00
78170;BME280;67412;49.892;14.490;2023-07-30T04:26:16;96749.31;;;16.07;100.00
78170;BME280;67412;49.892;14.490;2023-07-30T04:28:41;96751.50;;;16.16;100.00
78170;BME280;67412;49.892;14.490;2023-07-30T04:31:06;96758.13;;;16.21;100.00
78170;BME280;67412;49.892;14.490;2023-07-30T04:33:32;96764.16;;;16.22;100.00
78170;BME280;67412;49.892;14.490;2023-07-30T04:35:57;96762.31;;;16.24;100.00
78170;BME280;67412;49.892;14.490;2023-07-30T04:38:22;96765.22;;;16.18;100.00
78170;BME280;67412;49.892;14.490;2023-07-30T04:40:48;96770.59;;;16.32;100.00
78170;BME280;67412;49.892;14.490;2023-07-30T04:43:14;96770.94;;;16.24;100.00
78170;BME280;67412;49.892;14.490;2023-07-30T04:45:39;96760.78;;;16.38;100.00
78170;BME280;67412;49.892;14.490;2023-07-30T04:48:05;96766.25;;;16.51;100.00
78170;BME280;67412;49.892;14.490;2023-07-30T04:50:30;96764.25;;;16.58;100.00
78170;BME280;67412;49.892;14.490;2023-07-30T04:52:55;96765.34;;;16.71;100.00
78170;BME280;67412;49.892;14.490;2023-07-30T04:55:21;96770.78;;;16.83;100.00
78170;BME280;67412;49.892;14.490;2023-07-30T04:57:46;96780.81;;;16.91;100.00
78170;BME280;67412;49.892;14.490;2023-07-30T05:00:12;96789.84;;;17.01;99.78
78170;BME280;67412;49.892;14.490;2023-07-30T05:02:37;96785.88;;;17.11;99.15
78170;BME280;67412;49.892;14.490;2023-07-30T05:05:03;96790.69;;;17.19;98.66
78170;BME280;67412;49.892;14.490;2023-07-30T05:07:28;96785.19;;;17.25;98.69
78170;BME280;67412;49.892;14.490;2023-07-30T05:09:53;96785.88;;;17.28;99.46
78170;BME280;67412;49.892;14.490;2023-07-30T05:12:19;96781.16;;;17.36;99.88
78170;BME280;67412;49.892;14.490;2023-07-30T05:14:44;96787.19;;;17.37;99.89
78170;BME280;67412;49.892;14.490;2023-07-30T05:17:09;96786.44;;;17.35;100.00
78170;BME280;67412;49.892;14.490;2023-07-30T05:19:34;96786.72;;;17.29;100.00
78170;BME280;67412;49.892;14.490;2023-07-30T05:22:00;96785.44;;;17.37;99.58
78170;BME280;67412;49.892;14.490;2023-07-30T05:24:27;96784.69;;;17.35;98.88
78170;BME280;67412;49.892;14.490;2023-07-30T05:26:52;96778.56;;;17.36;99.37
78170;BME280;67412;49.892;14.490;2023-07-30T05:29:18;96777.81;;;17.34;100.00
78170;BME280;67412;49.892;14.490;2023-07-30T05:31:43;96782.16;;;17.34;99.00
78170;BME280;67412;49.892;14.490;2023-07-30T05:34:08;96782.53;;;17.26;99.52
78170;BME280;67412;49.892;14.490;2023-07-30T05:36:33;96786.88;;;17.26;98.98
78170;BME280;67412;49.892;14.490;2023-07-30T05:38:59;96784.97;;;17.29;98.01
78170;BME280;67412;49.892;14.490;2023-07-30T05:41:24;96777.88;;;17.33;98.17
78170;BME280;67412;49.892;14.490;2023-07-30T05:43:49;96780.09;;;17.23;98.92
78170;BME280;67412;49.892;14.490;2023-07-30T05:46:15;96784.97;;;17.12;100.00
78170;BME280;67412;49.892;14.490;2023-07-30T05:48:40;96782.53;;;17.09;100.00
78170;BME280;67412;49.892;14.490;2023-07-30T05:51:06;96791.50;;;17.02;100.00
78170;BME280;67412;49.892;14.490;2023-07-30T05:53:31;96784.38;;;16.88;100.00
78170;BME280;67412;49.892;14.490;2023-07-30T05:55:56;96793.03;;;16.89;100.00
78170;BME280;67412;49.892;14.490;2023-07-30T05:58:22;96796.25;;;16.94;100.00
78170;BME280;67412;49.892;14.490;2023-07-30T06:00:47;96799.16;;;17.05;100.00
78170;BME280;67412;49.892;14.490;2023-07-30T06:03:12;96798.00;;;17.11;100.00
78170;BME280;67412;49.892;14.490;2023-07-30T06:05:41;96797.66;;;17.18;99.09
78170;BME280;67412;49.892;14.490;2023-07-30T06:08:07;96801.78;;;17.22;98.75
78170;BME280;67412;49.892;14.490;2023-07-30T06:10:36;96809.97;;;17.32;99.35
78170;BME280;67412;49.892;14.490;2023-07-30T06:13:03;96804.25;;;17.43;98.36
78170;BME280;67412;49.892;14.490;2023-07-30T06:15:28;96812.94;;;17.42;97.16
78170;BME280;67412;49.892;14.490;2023-07-30T06:17:54;96814.47;;;17.46;98.79
78170;BME280;67412;49.892;14.490;2023-07-30T06:20:19;96807.59;;;17.45;98.79
78170;BME280;67412;49.892;14.490;2023-07-30T06:22:44;96810.50;;;17.38;98.93
78170;BME280;67412;49.892;14.490;2023-07-30T06:25:10;96806.53;;;17.49;98.05
78170;BME280;67412;49.892;14.490;2023-07-30T06:27:35;96817.81;;;17.48;97.90
78170;BME280;67412;49.892;14.490;2023-07-30T06:30:00;96803.63;;;17.55;96.83
78170;BME280;67412;49.892;14.490;2023-07-30T06:32:26;96809.63;;;17.57;96.66
78170;BME280;67412;49.892;14.490;2023-07-30T06:34:51;96818.94;;;17.61;97.18
78170;BME280;67412;49.892;14.490;2023-07-30T06:37:16;96815.75;;;17.73;97.38
78170;BME280;67412;49.892;14.490;2023-07-30T06:39:42;96810.97;;;17.81;97.09
78170;BME280;67412;49.892;14.490;2023-07-30T06:42:07;96816.63;;;17.89;96.45
78170;BME280;67412;49.892;14.490;2023-07-30T06:44:33;96804.69;;;18.02;96.20
78170;BME280;67412;49.892;14.490;2023-07-30T06:46:59;96804.59;;;18.04;96.08
78170;BME280;67412;49.892;14.490;2023-07-30T06:49:24;96814.47;;;18.14;95.76
78170;BME280;67412;49.892;14.490;2023-07-30T06:51:49;96807.22;;;18.19;94.54
78170;BME280;67412;49.892;14.490;2023-07-30T06:54:15;96806.84;;;18.27;94.38
78170;BME280;67412;49.892;14.490;2023-07-30T06:56:40;96812.97;;;18.42;94.49
78170;BME280;67412;49.892;14.490;2023-07-30T06:59:05;96809.97;;;18.49;93.88
78170;BME280;67412;49.892;14.490;2023-07-30T07:01:30;96818.06;;;18.60;93.08
78170;BME280;67412;49.892;14.490;2023-07-30T07:03:56;96818.78;;;18.47;92.50
78170;BME280;67412;49.892;14.490;2023-07-30T07:06:21;96828.72;;;18.23;94.14
78170;BME280;67412;49.892;14.490;2023-07-30T07:08:46;96826.22;;;18.21;95.58
78170;BME280;67412;49.892;14.490;2023-07-30T07:11:12;96830.75;;;18.33;94.32
78170;BME280;67412;49.892;14.490;2023-07-30T07:13:37;96835.47;;;18.43;94.55
78170;BME280;67412;49.892;14.490;2023-07-30T07:16:03;96834.69;;;18.25;95.15
78170;BME280;67412;49.892;14.490;2023-07-30T07:18:28;96841.41;;;18.29;95.76
78170;BME280;67412;49.892;14.490;2023-07-30T07:20:54;96841.31;;;18.30;95.74
78170;BME280;67412;49.892;14.490;2023-07-30T07:23:19;96842.84;;;18.34;96.27
78170;BME280;67412;49.892;14.490;2023-07-30T07:25:44;96840.81;;;18.24;95.54
78170;BME280;67412;49.892;14.490;2023-07-30T07:28:10;96848.53;;;18.25;95.45
78170;BME280;67412;49.892;14.490;2023-07-30T07:30:36;96856.72;;;18.18;96.08
78170;BME280;67412;49.892;14.490;2023-07-30T07:33:04;96855.28;;;18.12;98.07
78170;BME280;67412;49.892;14.490;2023-07-30T07:35:31;96862.03;;;17.99;98.84
78170;BME280;67412;49.892;14.490;2023-07-30T07:37:56;96865.94;;;17.91;98.88
78170;BME280;67412;49.892;14.490;2023-07-30T07:40:22;96864.09;;;17.75;99.29
78170;BME280;67412;49.892;14.490;2023-07-30T07:42:47;96857.53;;;17.68;100.00
78170;BME280;67412;49.892;14.490;2023-07-30T07:45:13;96862.94;;;17.64;100.00
78170;BME280;67412;49.892;14.490;2023-07-30T07:47:38;96866.03;;;17.53;100.00
78170;BME280;67412;49.892;14.490;2023-07-30T07:50:04;96865.94;;;17.55;100.00
78170;BME280;67412;49.892;14.490;2023-07-30T07:52:30;96879.41;;;17.46;100.00
78170;BME280;67412;49.892;14.490;2023-07-30T07:54:55;96876.47;;;17.34;100.00
78170;BME280;67412;49.892;14.490;2023-07-30T07:57:20;96878.94;;;17.37;100.00
78170;BME280;67412;49.892;14.490;2023-07-30T07:59:46;96885.63;;;17.24;100.00
78170;BME280;67412;49.892;14.490;2023-07-30T08:02:12;96886.88;;;17.34;100.00
78170;BME280;67412;49.892;14.490;2023-07-30T08:04:37;96884.91;;;17.21;100.00
78170;BME280;67412;49.892;14.490;2023-07-30T08:07:03;96883.03;;;17.24;100.00
78170;BME280;67412;49.892;14.490;2023-07-30T08:09:29;96885.84;;;17.20;100.00
78170;BME280;67412;49.892;14.490;2023-07-30T08:11:54;96885.41;;;17.10;100.00
78170;BME280;67412;49.892;14.490;2023-07-30T08:14:20;96879.63;;;17.05;100.00
78170;BME280;67412;49.892;14.490;2023-07-30T08:16:45;96874.44;;;17.05;100.00
78170;BME280;67412;49.892;14.490;2023-07-30T08:19:10;96881.59;;;17.00;100.00
78170;BME280;67412;49.892;14.490;2023-07-30T08:21:36;96890.13;;;17.02;100.00
78170;BME280;67412;49.892;14.490;2023-07-30T08:24:01;96886.72;;;17.02;100.00
78170;BME280;67412;49.892;14.490;2023-07-30T08:26:26;96885.88;;;17.01;100.00
78170;BME280;67412;49.892;14.490;2023-07-30T08:28:52;96889.50;;;16.97;100.00
78170;BME280;67412;49.892;14.490;2023-07-30T08:31:17;96891.22;;;16.98;100.00
78170;BME280;67412;49.892;14.490;2023-07-30T08:33:42;96896.31;;;17.00;100.00
78170;BME280;67412;49.892;14.490;2023-07-30T08:36:07;96895.66;;;16.95;100.00
78170;BME280;67412;49.892;14.490;2023-07-30T08:38:33;96892.88;;;16.80;100.00
78170;BME280;67412;49.892;14.490;2023-07-30T08:40:58;96894.75;;;16.77;100.00
78170;BME280;67412;49.892;14.490;2023-07-30T08:43:23;96889.03;;;16.70;100.00
78170;BME280;67412;49.892;14.490;2023-07-30T08:45:49;96892.13;;;16.78;100.00
78170;BME280;67412;49.892;14.490;2023-07-30T08:48:14;96876.06;;;16.89;100.00
78170;BME280;67412;49.892;14.490;2023-07-30T08:50:40;96872.47;;;16.91;100.00
78170;BME280;67412;49.892;14.490;2023-07-30T08:53:07;96880.53;;;17.04;100.00
78170;BME280;67412;49.892;14.490;2023-07-30T08:55:34;96869.84;;;17.10;100.00
78170;BME280;67412;49.892;14.490;2023-07-30T08:58:03;96879.84;;;17.36;100.00
78170;BME280;67412;49.892;14.490;2023-07-30T09:00:31;96865.00;;;17.57;100.00
78170;BME280;67412;49.892;14.490;2023-07-30T09:02:59;96871.84;;;17.77;98.59
78170;BME280;67412;49.892;14.490;2023-07-30T09:05:26;96870.03;;;17.77;98.46
78170;BME280;67412;49.892;14.490;2023-07-30T09:07:54;96871.66;;;17.97;98.13
78170;BME280;67412;49.892;14.490;2023-07-30T09:10:20;96868.50;;;18.08;97.57
78170;BME280;67412;49.892;14.490;2023-07-30T09:12:45;96870.88;;;18.12;97.55
78170;BME280;67412;49.892;14.490;2023-07-30T09:15:10;96864.25;;;18.40;99.47
78170;BME280;67412;49.892;14.490;2023-07-30T09:17:36;96861.38;;;18.61;97.82
78170;BME280;67412;49.892;14.490;2023-07-30T09:20:03;96868.03;;;18.82;96.52
78170;BME280;67412;49.892;14.490;2023-07-30T09:22:31;96860.63;;;18.75;93.29
78170;BME280;67412;49.892;14.490;2023-07-30T09:25:06;96870.56;;;18.84;89.79
78170;BME280;67412;49.892;14.490;2023-07-30T09:27:32;96869.28;;;18.75;92.53
78170;BME280;67412;49.892;14.490;2023-07-30T09:29:59;96869.22;;;19.08;91.95
78170;BME280;67412;49.892;14.490;2023-07-30T09:32:29;96859.22;;;19.16;90.87
78170;BME280;67412;49.892;14.490;2023-07-30T09:34:56;96862.06;;;19.43;87.98
78170;BME280;67412;49.892;14.490;2023-07-30T09:37:29;96868.53;;;19.52;89.07
78170;BME280;67412;49.892;14.490;2023-07-30T09:39:57;96866.44;;;20.02;88.40
78170;BME280;67412;49.892;14.490;2023-07-30T09:42:26;96866.75;;;20.12;88.38
78170;BME280;67412;49.892;14.490;2023-07-30T09:44:52;96872.25;;;20.21;88.97
78170;BME280;67412;49.892;14.490;2023-07-30T09:47:17;96869.16;;;20.01;89.48
78170;BME280;67412;49.892;14.490;2023-07-30T09:49:43;96871.00;;;19.99;88.42
78170;BME280;67412;49.892;14.490;2023-07-30T09:52:09;96865.72;;;20.14;90.62
78170;BME280;67412;49.892;14.490;2023-07-30T09:54:36;96866.13;;;20.37;86.92
78170;BME280;67412;49.892;14.490;2023-07-30T09:57:02;96868.47;;;20.41;88.21
78170;BME280;67412;49.892;14.490;2023-07-30T09:59:29;96865.03;;;20.55;90.00
78170;BME280;67412;49.892;14.490;2023-07-30T10:01:55;96859.81;;;20.69;86.14
78170;BME280;67412;49.892;14.490;2023-07-30T10:04:21;96856.78;;;20.89;85.08
78170;BME280;67412;49.892;14.490;2023-07-30T10:06:52;96857.97;;;21.12;85.35
78170;BME280;67412;49.892;14.490;2023-07-30T10:09:20;96861.19;;;21.56;83.64
78170;BME280;67412;49.892;14.490;2023-07-30T10:11:47;96857.50;;;21.46;82.33
78170;BME280;67412;49.892;14.490;2023-07-30T10:14:17;96859.69;;;21.40;81.53
78170;BME280;67412;49.892;14.490;2023-07-30T10:16:59;96855.09;;;21.43;81.55
78170;BME280;67412;49.892;14.490;2023-07-30T10:19:25;96849.09;;;21.68;81.88
78170;BME280;67412;49.892;14.490;2023-07-30T10:21:53;96845.88;;;21.77;80.78
78170;BME280;67412;49.892;14.490;2023-07-30T10:24:18;96847.66;;;21.77;78.02
78170;BME280;67412;49.892;14.490;2023-07-30T10:26:43;96851.47;;;21.98;81.74
78170;BME280;67412;49.892;14.490;2023-07-30T10:31:39;96855.19;;;21.81;78.28
78170;BME280;67412;49.892;14.490;2023-07-30T10:34:09;96850.69;;;21.71;75.23
78170;BME280;67412;49.892;14.490;2023-07-30T10:36:49;96846.38;;;21.69;77.92
78170;BME280;67412;49.892;14.490;2023-07-30T10:39:16;96831.59;;;22.21;78.41
78170;BME280;67412;49.892;14.490;2023-07-30T10:41:49;96831.41;;;22.36;76.86
78170;BME280;67412;49.892;14.490;2023-07-30T10:44:26;96832.88;;;22.53;75.10
78170;BME280;67412;49.892;14.490;2023-07-30T10:46:56;96831.63;;;22.33;73.38
78170;BME280;67412;49.892;14.490;2023-07-30T10:49:22;96829.00;;;21.95;75.67
78170;BME280;67412;49.892;14.490;2023-07-30T10:51:48;96830.13;;;22.54;74.93
78170;BME280;67412;49.892;14.490;2023-07-30T10:54:13;96828.25;;;22.69;74.59
78170;BME280;67412;49.892;14.490;2023-07-30T10:56:41;96831.75;;;22.93;76.07
78170;BME280;67412;49.892;14.490;2023-07-30T10:59:06;96821.44;;;23.39;72.93
78170;BME280;67412;49.892;14.490;2023-07-30T11:01:42;96830.31;;;23.49;69.83
78170;BME280;67412;49.892;14.490;2023-07-30T11:04:13;96824.41;;;23.70;68.88
78170;BME280;67412;49.892;14.490;2023-07-30T11:06:39;96821.81;;;22.86;74.02
78170;BME280;67412;49.892;14.490;2023-07-30T11:09:05;96818.09;;;22.52;70.21
78170;BME280;67412;49.892;14.490;2023-07-30T11:11:30;96818.00;;;22.41;70.33
78170;BME280;67412;49.892;14.490;2023-07-30T11:13:56;96813.69;;;22.27;72.72
78170;BME280;67412;49.892;14.490;2023-07-30T11:16:22;96812.69;;;22.30;74.05
78170;BME280;67412;49.892;14.490;2023-07-30T11:18:47;96816.09;;;22.55;75.81
78170;BME280;67412;49.892;14.490;2023-07-30T11:21:15;96812.44;;;22.71;72.79
78170;BME280;67412;49.892;14.490;2023-07-30T11:23:45;96810.69;;;22.95;73.05
78170;BME280;67412;49.892;14.490;2023-07-30T11:26:18;96817.91;;;22.91;72.47
78170;BME280;67412;49.892;14.490;2023-07-30T11:28:44;96809.09;;;23.05;70.75
78170;BME280;67412;49.892;14.490;2023-07-30T11:31:12;96808.09;;;23.19;68.30
78170;BME280;67412;49.892;14.490;2023-07-30T11:33:41;96810.88;;;23.28;68.43
78170;BME280;67412;49.892;14.490;2023-07-30T11:36:09;96817.25;;;23.61;66.71
78170;BME280;67412;49.892;14.490;2023-07-30T11:38:38;96821.91;;;24.03;68.89
78170;BME280;67412;49.892;14.490;2023-07-30T11:41:04;96806.72;;;23.84;67.27
78170;BME280;67412;49.892;14.490;2023-07-30T11:43:30;96803.53;;;23.57;67.66
78170;BME280;67412;49.892;14.490;2023-07-30T11:46:15;96805.22;;;23.22;65.66
78170;BME280;67412;49.892;14.490;2023-07-30T11:48:42;96813.50;;;23.04;68.76
78170;BME280;67412;49.892;14.490;2023-07-30T11:51:19;96801.16;;;23.65;66.08
78170;BME280;67412;49.892;14.490;2023-07-30T11:53:50;96807.53;;;23.85;63.18
78170;BME280;67412;49.892;14.490;2023-07-30T11:58:46;96809.88;;;23.66;63.20
78170;BME280;67412;49.892;14.490;2023-07-30T12:01:13;96805.78;;;23.38;64.58
78170;BME280;67412;49.892;14.490;2023-07-30T12:03:39;96801.16;;;23.18;65.78
78170;BME280;67412;49.892;14.490;2023-07-30T12:06:05;96795.63;;;23.09;66.77
78170;BME280;67412;49.892;14.490;2023-07-30T12:08:31;96802.34;;;22.77;66.52
78170;BME280;67412;49.892;14.490;2023-07-30T12:11:02;96809.41;;;22.39;68.39
78170;BME280;67412;49.892;14.490;2023-07-30T12:13:28;96813.81;;;22.13;72.42
78170;BME280;67412;49.892;14.490;2023-07-30T12:15:54;96817.41;;;21.73;72.97
78170;BME280;67412;49.892;14.490;2023-07-30T12:18:21;96821.91;;;20.90;78.75
78170;BME280;67412;49.892;14.490;2023-07-30T12:20:46;96836.91;;;20.32;82.79
78170;BME280;67412;49.892;14.490;2023-07-30T12:23:12;96842.03;;;20.03;84.88
78170;BME280;67412;49.892;14.490;2023-07-30T12:25:38;96839.41;;;19.89;86.44
78170;BME280;67412;49.892;14.490;2023-07-30T12:28:04;96830.81;;;19.87;88.04
78170;BME280;67412;49.892;14.490;2023-07-30T12:30:29;96820.78;;;19.81;86.61
78170;BME280;67412;49.892;14.490;2023-07-30T12:32:55;96818.16;;;19.67;86.32
78170;BME280;67412;49.892;14.490;2023-07-30T12:35:21;96817.47;;;19.63;87.63
78170;BME280;67412;49.892;14.490;2023-07-30T12:37:46;96813.44;;;19.58;84.37
78170;BME280;67412;49.892;14.490;2023-07-30T12:40:12;96814.91;;;19.48;83.29
78170;BME280;67412;49.892;14.490;2023-07-30T12:42:37;96819.81;;;19.38;84.93
78170;BME280;67412;49.892;14.490;2023-07-30T12:45:02;96823.94;;;19.26;87.47